Time;durP1;ratioP1;P1;durP2;ratioP2;P2;SDS_P1;SDS_P2;PMS_P1;PMS_P2;Temp;Humidity;BMP_temperature;BMP_pressure;BME280_temperature;BME280_humidity;BME280_pressure;Samples;Min_cycle;Max_cycle;Signal;HPM_P1;HPM_P2
2024/03/15 08:49:43;;;;;;;3.40;0.67;;;14.90;99.90;;;;;;4610401;23;20642;-72
2024/03/15 08:52:16;;;;;;;4.77;2.00;;;14.80;99.90;;;;;;4917092;29;20296;-72
2024/03/15 08:54:43;;;;;;;3.40;0.60;;;14.80;99.90;;;;;;4916672;29;20319;-73
2024/03/15 08:57:10;;;;;;;3.60;0.60;;;14.80;99.90;;;;;;4916076;29;20324;-72
2024/03/15 08:59:37;;;;;;;0.93;0.33;;;14.80;99.90;;;;;;4900698;29;20216;-72
2024/03/15 09:02:04;;;;;;;1.30;0.60;;;14.60;99.90;;;;;;4900186;29;20237;-73
2024/03/15 09:04:31;;;;;;;3.10;0.73;;;14.80;99.90;;;;;;4900030;29;20614;-73
2024/03/15 09:06:58;;;;;;;1.07;0.50;;;14.90;99.90;;;;;;4900096;29;20604;-73
2024/03/15 09:09:32;;;;;;;2.20;0.40;;;15.20;99.90;;;;;;4900076;29;20257;-73
2024/03/15 09:11:59;;;;;;;2.87;0.50;;;15.50;99.90;;;;;;4901351;29;20245;-73
2024/03/15 09:14:29;;;;;;;0.83;0.60;;;15.70;99.90;;;;;;4900346;29;20244;-73
2024/03/15 09:16:56;;;;;;;1.63;0.60;;;15.80;99.90;;;;;;4900766;29;20229;-74
2024/03/15 09:19:23;;;;;;;3.63;0.70;;;15.30;99.90;;;;;;4900295;29;20213;-73
2024/03/15 09:21:50;;;;;;;3.50;0.50;;;15.20;99.90;;;;;;4899781;29;20213;-74
2024/03/15 09:24:18;;;;;;;1.70;0.60;;;15.30;99.90;;;;;;4900385;29;20354;-74
2024/03/15 09:26:45;;;;;;;1.77;0.50;;;15.30;99.90;;;;;;4900082;29;20315;-73
2024/03/15 09:29:12;;;;;;;4.40;0.77;;;15.40;99.90;;;;;;4900164;29;20217;-74
2024/03/15 09:31:40;;;;;;;3.33;0.80;;;15.50;99.90;;;;;;4900150;29;20265;-74
2024/03/15 09:34:10;;;;;;;2.33;1.30;;;15.60;99.90;;;;;;4900048;29;20210;-74
2024/03/15 09:36:38;;;;;;;2.37;0.50;;;15.60;99.90;;;;;;4900262;29;20602;-74
2024/03/15 09:39:05;;;;;;;1.23;0.40;;;15.50;99.90;;;;;;4899958;29;20678;-74
2024/03/15 09:41:32;;;;;;;1.57;0.67;;;15.50;99.90;;;;;;4900056;29;20643;-74
2024/03/15 09:44:01;;;;;;;1.50;0.40;;;15.60;99.90;;;;;;4900305;29;20214;-74
2024/03/15 09:46:28;;;;;;;0.90;0.40;;;15.70;99.90;;;;;;4899839;29;20268;-73
2024/03/15 09:48:56;;;;;;;1.63;0.40;;;16.00;99.90;;;;;;4899591;29;20753;-74
2024/03/15 09:51:23;;;;;;;2.30;0.70;;;15.90;99.90;;;;;;4900009;29;20306;-73
2024/03/15 09:53:50;;;;;;;0.90;0.50;;;16.00;99.90;;;;;;4899838;29;20245;-73
2024/03/15 09:56:17;;;;;;;3.77;0.33;;;16.00;99.90;;;;;;4899986;29;20606;-74
2024/03/15 09:58:46;;;;;;;2.90;0.50;;;16.10;99.90;;;;;;4899604;29;20241;-74
2024/03/15 10:01:14;;;;;;;1.03;0.40;;;16.10;99.90;;;;;;4900010;29;20245;-74
2024/03/15 10:03:43;;;;;;;1.47;0.50;;;16.00;99.90;;;;;;4899933;29;20303;-75
2024/03/15 10:06:11;;;;;;;1.73;0.43;;;16.00;99.90;;;;;;4900064;29;20232;-75
2024/03/15 10:08:38;;;;;;;3.30;0.50;;;15.90;99.90;;;;;;4900032;29;20209;-75
2024/03/15 10:11:05;;;;;;;4.20;0.60;;;16.10;99.90;;;;;;4899692;29;20611;-75
2024/03/15 10:13:33;;;;;;;1.80;0.33;;;16.50;99.90;;;;;;4899813;29;20645;-73
2024/03/15 10:16:00;;;;;;;2.40;0.37;;;16.70;99.90;;;;;;4899698;29;20273;-74
2024/03/15 10:18:27;;;;;;;4.27;0.40;;;16.70;99.90;;;;;;4900000;29;20210;-73
2024/03/15 10:20:55;;;;;;;1.42;0.40;;;16.80;99.90;;;;;;4899749;29;20237;-73
2024/03/15 10:23:22;;;;;;;3.50;0.50;;;16.80;99.90;;;;;;4899607;29;20656;-73
2024/03/15 10:25:50;;;;;;;0.45;0.30;;;16.60;99.90;;;;;;4899781;29;20234;-73
2024/03/15 10:28:19;;;;;;;2.63;0.40;;;16.10;99.90;;;;;;4899712;29;20292;-74
2024/03/15 10:30:46;;;;;;;0.70;0.40;;;15.70;99.90;;;;;;4900058;29;20213;-73
2024/03/15 10:33:14;;;;;;;2.00;0.50;;;15.60;99.90;;;;;;4900441;29;20256;-74
2024/03/15 10:35:41;;;;;;;0.53;0.23;;;15.70;99.90;;;;;;4902889;29;20249;-73
2024/03/15 10:38:09;;;;;;;0.67;0.60;;;15.70;99.90;;;;;;4903023;29;20212;-73
2024/03/15 10:40:36;;;;;;;4.53;0.43;;;15.80;99.90;;;;;;4903018;29;20261;-74
2024/03/15 10:43:08;;;;;;;3.07;0.57;;;16.20;99.90;;;;;;4902722;29;20677;-74
2024/03/15 10:45:35;;;;;;;2.40;0.70;;;16.40;99.90;;;;;;4902488;29;20718;-73
2024/03/15 10:48:02;;;;;;;1.03;0.60;;;16.50;99.90;;;;;;4902689;29;20209;-75
2024/03/15 10:50:29;;;;;;;5.53;0.73;;;16.50;99.90;;;;;;4902404;29;20589;-73
2024/03/15 10:52:56;;;;;;;3.60;0.50;;;16.40;99.90;;;;;;4902562;29;20623;-73
2024/03/15 10:55:24;;;;;;;0.77;0.40;;;16.50;99.90;;;;;;4902030;29;20238;-74
2024/03/15 10:57:51;;;;;;;1.40;0.20;;;16.50;99.90;;;;;;4902461;29;20209;-74
2024/03/15 11:00:18;;;;;;;2.37;0.40;;;16.40;99.90;;;;;;4902583;29;20245;-73
2024/03/15 11:02:45;;;;;;;1.33;0.30;;;16.30;99.90;;;;;;4902257;29;20214;-74
2024/03/15 11:05:17;;;;;;;1.00;0.30;;;16.20;99.90;;;;;;4902101;29;20273;-75
2024/03/15 11:07:44;;;;;;;1.53;0.40;;;16.30;99.90;;;;;;4902281;29;20237;-75
2024/03/15 11:10:13;;;;;;;1.33;0.40;;;16.20;99.90;;;;;;4886575;29;20229;-74
2024/03/15 11:12:40;;;;;;;1.33;0.50;;;16.20;99.90;;;;;;4902365;29;20690;-74
2024/03/15 11:15:09;;;;;;;3.87;0.70;;;16.40;99.90;;;;;;4902110;29;20405;-74
2024/03/15 11:17:36;;;;;;;0.93;0.40;;;16.80;99.90;;;;;;4902165;29;20296;-72
2024/03/15 11:20:09;;;;;;;2.08;0.70;;;17.00;99.90;;;;;;4901938;29;20237;-73
2024/03/15 11:22:36;;;;;;;1.75;0.40;;;17.00;99.90;;;;;;4902084;29;20209;-75
2024/03/15 11:25:05;;;;;;;2.08;0.70;;;17.10;99.90;;;;;;4901913;29;20220;-74
2024/03/15 11:27:32;;;;;;;1.83;0.50;;;16.90;99.90;;;;;;4901980;29;20607;-73
2024/03/15 11:29:59;;;;;;;1.60;0.60;;;16.80;99.90;;;;;;4901853;29;20220;-73
2024/03/15 11:32:26;;;;;;;3.88;0.50;;;16.60;99.90;;;;;;4901635;29;20213;-75
2024/03/15 11:34:53;;;;;;;0.52;0.30;;;16.70;99.90;;;;;;4901550;29;20667;-74
2024/03/15 11:37:23;;;;;;;3.97;0.73;;;16.70;99.90;;;;;;4901482;29;20324;-74
2024/03/15 11:40:00;;;;;;;1.30;0.52;;;16.70;99.90;;;;;;4902380;29;20209;-72
2024/03/15 11:42:27;;;;;;;2.72;0.50;;;16.70;99.90;;;;;;4901975;29;20213;-73
2024/03/15 11:44:55;;;;;;;1.70;0.50;;;16.80;99.90;;;;;;4901388;29;20709;-73
2024/03/15 11:47:23;;;;;;;0.82;0.38;;;16.90;99.90;;;;;;4901647;29;20256;-73
2024/03/15 11:49:55;;;;;;;0.82;0.40;;;17.00;99.90;;;;;;4901055;29;20217;-72
2024/03/15 11:52:22;;;;;;;1.27;0.45;;;16.90;99.90;;;;;;4901536;29;20264;-72
2024/03/15 11:54:54;;;;;;;5.07;0.75;;;16.80;99.90;;;;;;4901378;29;20292;-72
2024/03/15 11:57:21;;;;;;;3.03;0.40;;;16.60;99.90;;;;;;4901298;29;20248;-73
2024/03/15 11:59:47;;;;;;;3.70;0.60;;;16.70;99.90;;;;;;4901358;29;20213;-73
2024/03/15 12:02:14;;;;;;;0.50;0.30;;;16.80;99.90;;;;;;4900824;29;20232;-73
2024/03/15 12:04:41;;;;;;;4.13;0.80;;;17.00;99.90;;;;;;4900730;29;20213;-73
2024/03/15 12:07:09;;;;;;;1.70;0.60;;;17.10;99.90;;;;;;4900884;29;20269;-73
2024/03/15 12:09:40;;;;;;;1.17;0.43;;;17.20;99.90;;;;;;4901379;29;20221;-73
2024/03/15 12:12:08;;;;;;;2.20;0.50;;;17.00;99.90;;;;;;4901393;29;20220;-73
2024/03/15 12:14:36;;;;;;;2.95;0.50;;;17.00;99.90;;;;;;4901106;29;20236;-73
2024/03/15 12:17:03;;;;;;;0.43;0.30;;;16.70;99.90;;;;;;4900911;29;20253;-73
2024/03/15 12:19:30;;;;;;;2.00;0.40;;;16.60;99.90;;;;;;4900865;29;20220;-72
2024/03/15 12:21:57;;;;;;;5.73;0.67;;;16.70;99.90;;;;;;4900642;29;20301;-73
2024/03/15 12:24:24;;;;;;;3.08;0.80;;;16.50;99.90;;;;;;4900662;29;20241;-73
2024/03/15 12:26:51;;;;;;;3.43;0.57;;;16.40;99.90;;;;;;4900599;29;20261;-72
2024/03/15 12:29:20;;;;;;;8.13;0.70;;;16.00;99.90;;;;;;4900461;29;20292;-72
2024/03/15 12:31:47;;;;;;;2.63;0.57;;;15.40;99.90;;;;;;4900699;29;20797;-73
2024/03/15 12:34:14;;;;;;;2.33;0.50;;;15.10;99.90;;;;;;4900560;29;20308;-73
2024/03/15 12:36:41;;;;;;;3.20;0.57;;;15.00;99.90;;;;;;4900262;29;20283;-72
2024/03/15 12:39:09;;;;;;;1.43;0.40;;;14.90;99.90;;;;;;4900359;29;20256;-73
2024/03/15 12:41:36;;;;;;;2.67;0.80;;;15.00;99.90;;;;;;4900624;29;20213;-72
2024/03/15 12:44:03;;;;;;;2.93;0.57;;;15.20;99.90;;;;;;4900422;29;20709;-73
2024/03/15 12:46:30;;;;;;;3.30;0.87;;;15.20;99.90;;;;;;4900126;29;20297;-73
2024/03/15 12:48:59;;;;;;;3.03;0.60;;;15.00;99.90;;;;;;4899609;29;20674;-73
2024/03/15 12:51:26;;;;;;;1.70;0.50;;;14.90;99.90;;;;;;4900203;29;20219;-73
2024/03/15 12:53:55;;;;;;;2.43;0.53;;;14.90;99.90;;;;;;4899948;29;20237;-73
2024/03/15 12:56:22;;;;;;;1.83;0.50;;;14.90;99.90;;;;;;4899633;29;20245;-73
2024/03/15 12:58:49;;;;;;;2.43;0.40;;;14.80;99.90;;;;;;4900206;29;20218;-73
2024/03/15 13:01:16;;;;;;;5.73;0.43;;;14.70;99.90;;;;;;4899838;29;20296;-73
2024/03/15 13:03:44;;;;;;;3.13;0.60;;;14.70;99.90;;;;;;4900003;29;20257;-73
2024/03/15 13:06:11;;;;;;;2.67;0.67;;;14.60;99.90;;;;;;4899773;29;20257;-73
2024/03/15 13:08:38;;;;;;;2.27;0.50;;;14.50;99.90;;;;;;4899682;29;20244;-73
2024/03/15 13:11:08;;;;;;;1.43;0.50;;;14.40;99.90;;;;;;4899027;29;20297;-73
2024/03/15 13:13:35;;;;;;;2.90;0.70;;;14.20;99.90;;;;;;4899789;29;20205;-73
2024/03/15 13:16:02;;;;;;;4.37;0.70;;;14.00;99.90;;;;;;4899363;29;20321;-72
2024/03/15 13:18:29;;;;;;;4.07;0.70;;;13.80;99.90;;;;;;4899469;29;20251;-73
2024/03/15 13:20:56;;;;;;;2.80;0.63;;;13.80;99.90;;;;;;4899729;29;20252;-73
2024/03/15 13:23:23;;;;;;;1.37;0.40;;;13.80;99.90;;;;;;4899699;29;20301;-73
2024/03/15 13:25:52;;;;;;;1.70;0.70;;;13.80;99.90;;;;;;4899506;29;20781;-73
2024/03/15 13:28:19;;;;;;;1.30;0.80;;;14.00;99.90;;;;;;4900163;29;20261;-72
2024/03/15 13:30:46;;;;;;;3.50;0.60;;;14.10;99.90;;;;;;4899345;29;20670;-73
2024/03/15 13:33:14;;;;;;;1.67;0.50;;;14.30;99.90;;;;;;4899383;29;20213;-73
2024/03/15 13:35:41;;;;;;;1.13;0.43;;;14.60;99.90;;;;;;4899329;29;20257;-73
2024/03/15 13:38:08;;;;;;;3.43;0.80;;;14.60;99.90;;;;;;4899253;29;20226;-73
2024/03/15 13:40:35;;;;;;;2.70;0.57;;;14.50;99.90;;;;;;4899662;29;20213;-73
2024/03/15 13:43:03;;;;;;;1.53;0.50;;;14.40;99.90;;;;;;4899490;29;20276;-72
2024/03/15 13:45:30;;;;;;;2.20;0.50;;;14.10;99.90;;;;;;4899290;29;20261;-73
2024/03/15 13:47:59;;;;;;;4.00;0.93;;;14.00;99.90;;;;;;4899408;29;20252;-73
2024/03/15 13:50:28;;;;;;;0.47;0.33;;;14.00;99.90;;;;;;4899407;29;20284;-72
2024/03/15 13:52:57;;;;;;;0.70;0.20;;;14.00;99.90;;;;;;4899326;29;20611;-73
2024/03/15 13:55:24;;;;;;;2.10;0.33;;;14.00;99.90;;;;;;4899267;29;20683;-71
2024/03/15 13:57:51;;;;;;;1.30;0.40;;;14.00;99.90;;;;;;4899320;29;20248;-71
2024/03/15 14:00:31;;;;;;;1.93;0.70;;;13.90;99.90;;;;;;4898899;29;20214;-72
2024/03/15 14:03:01;;;;;;;1.20;0.43;;;13.80;99.90;;;;;;4901025;29;20205;-72
2024/03/15 14:05:29;;;;;;;3.53;0.50;;;13.80;99.90;;;;;;4899120;29;20233;-72
2024/03/15 14:07:56;;;;;;;4.27;1.13;;;13.70;99.90;;;;;;4899359;29;20312;-72
2024/03/15 14:10:28;;;;;;;0.97;0.57;;;13.70;99.90;;;;;;4902604;29;20646;-72
2024/03/15 14:12:55;;;;;;;2.47;0.60;;;13.70;99.90;;;;;;4903415;29;20201;-72
2024/03/15 14:15:22;;;;;;;0.90;0.40;;;13.80;99.90;;;;;;4902371;29;20567;-73
2024/03/15 14:17:50;;;;;;;1.80;0.50;;;13.80;99.90;;;;;;4902651;29;20362;-75
2024/03/15 14:20:17;;;;;;;1.20;0.60;;;13.90;99.90;;;;;;4902531;29;20209;-74
2024/03/15 14:22:44;;;;;;;3.13;0.50;;;13.90;99.90;;;;;;4902213;29;20240;-75
2024/03/15 14:25:15;;;;;;;3.33;0.53;;;14.00;99.90;;;;;;4902473;29;20700;-76
2024/03/15 14:27:46;;;;;;;1.07;0.50;;;14.00;99.90;;;;;;4902737;29;20268;-75
2024/03/15 14:30:14;;;;;;;0.80;0.40;;;14.00;99.90;;;;;;4902724;29;20214;-75
2024/03/15 14:32:43;;;;;;;0.83;0.40;;;13.90;99.90;;;;;;4902887;29;20209;-75
2024/03/15 14:35:12;;;;;;;1.03;0.57;;;14.00;99.90;;;;;;4902298;29;20220;-75
2024/03/15 14:37:39;;;;;;;1.60;0.50;;;13.80;99.90;;;;;;4902496;29;20241;-73
2024/03/15 14:40:10;;;;;;;1.33;0.40;;;13.80;99.90;;;;;;4902027;29;20241;-75
2024/03/15 14:42:38;;;;;;;2.10;0.50;;;13.80;99.90;;;;;;4902967;29;20297;-76
2024/03/15 14:45:10;;;;;;;3.37;1.20;;;13.80;99.90;;;;;;4902788;29;20210;-71
2024/03/15 14:47:37;;;;;;;1.40;0.60;;;13.80;99.90;;;;;;4903074;29;20216;-71
2024/03/15 14:50:06;;;;;;;2.10;0.40;;;13.90;99.90;;;;;;4902061;29;20221;-73
2024/03/15 14:52:34;;;;;;;3.50;0.70;;;13.90;99.90;;;;;;4903267;29;20220;-72
2024/03/15 14:55:00;;;;;;;0.47;0.30;;;13.90;99.90;;;;;;4902271;29;20681;-73
2024/03/15 14:57:28;;;;;;;0.80;0.40;;;13.90;99.90;;;;;;4901969;29;20642;-73
2024/03/15 14:59:55;;;;;;;2.90;0.40;;;13.80;99.90;;;;;;4901703;29;20228;-72
2024/03/15 15:02:23;;;;;;;0.70;0.70;;;13.90;99.90;;;;;;4901654;29;20615;-72
2024/03/15 15:04:50;;;;;;;1.63;0.50;;;13.90;99.90;;;;;;4901896;29;20248;-74
2024/03/15 15:07:17;;;;;;;1.40;0.40;;;13.80;99.90;;;;;;4901903;29;20233;-73
2024/03/15 15:09:44;;;;;;;4.40;0.87;;;13.80;99.90;;;;;;4901284;29;20312;-73
2024/03/15 15:12:15;;;;;;;2.70;0.50;;;13.80;99.90;;;;;;4901605;29;20252;-73
2024/03/15 15:14:43;;;;;;;2.63;0.50;;;13.80;99.90;;;;;;4901828;29;20574;-72
2024/03/15 15:17:10;;;;;;;3.13;0.60;;;14.00;99.90;;;;;;4900880;29;20237;-72
2024/03/15 15:19:38;;;;;;;1.90;0.50;;;14.00;99.90;;;;;;4900107;29;20205;-72
2024/03/15 15:22:05;;;;;;;2.63;0.50;;;14.00;99.90;;;;;;4900596;29;20301;-73
2024/03/15 15:24:32;;;;;;;0.90;0.40;;;14.10;99.90;;;;;;4901247;29;20244;-73
2024/03/15 15:26:59;;;;;;;2.07;0.60;;;14.10;99.90;;;;;;4900906;29;20321;-75
2024/03/15 15:29:27;;;;;;;4.47;0.50;;;14.10;99.90;;;;;;4900418;29;20713;-75
2024/03/15 15:31:55;;;;;;;0.90;0.37;;;14.30;99.90;;;;;;4900409;29;20683;-73
2024/03/15 15:34:21;;;;;;;3.77;0.57;;;14.30;99.90;;;;;;4901406;29;20316;-76
2024/03/15 15:36:50;;;;;;;1.50;0.50;;;14.40;99.90;;;;;;4900549;29;20272;-75
2024/03/15 15:39:17;;;;;;;2.40;0.50;;;14.40;99.90;;;;;;4901528;29;20220;-74
2024/03/15 15:41:44;;;;;;;2.63;0.40;;;14.60;99.90;;;;;;4901196;29;20328;-73
2024/03/15 15:44:11;;;;;;;1.20;0.50;;;14.50;99.90;;;;;;4901345;29;20293;-75
2024/03/15 15:46:38;;;;;;;0.70;0.37;;;14.50;99.90;;;;;;4901370;29;20244;-74
2024/03/15 15:49:05;;;;;;;3.00;0.43;;;14.50;99.90;;;;;;4900810;29;20232;-73
2024/03/15 15:51:35;;;;;;;4.13;0.60;;;14.50;99.90;;;;;;4900873;29;20213;-76
2024/03/15 15:54:04;;;;;;;0.80;0.37;;;14.30;99.90;;;;;;4901097;29;20205;-76
2024/03/15 15:56:31;;;;;;;4.73;0.60;;;14.20;99.90;;;;;;4900847;29;20234;-77
2024/03/15 15:58:58;;;;;;;3.50;0.37;;;14.20;99.90;;;;;;4900088;29;20705;-76
2024/03/15 16:01:25;;;;;;;3.00;0.40;;;14.20;99.90;;;;;;4900950;29;20656;-75
2024/03/15 16:03:52;;;;;;;2.93;0.97;;;14.30;99.90;;;;;;4900666;29;20233;-75
2024/03/15 16:06:19;;;;;;;2.10;0.40;;;14.30;99.90;;;;;;4900204;29;20244;-74
2024/03/15 16:08:46;;;;;;;3.47;0.60;;;14.30;99.90;;;;;;4900150;29;20379;-74
2024/03/15 16:11:15;;;;;;;2.87;0.50;;;14.30;99.90;;;;;;4900424;29;20292;-75
2024/03/15 16:13:42;;;;;;;1.17;0.40;;;14.40;99.90;;;;;;4900354;29;20663;-75
2024/03/15 16:16:09;;;;;;;1.97;0.40;;;14.40;99.90;;;;;;4900354;29;20737;-75
2024/03/15 16:18:37;;;;;;;2.53;0.50;;;14.30;99.90;;;;;;4901069;29;20670;-76
2024/03/15 16:21:04;;;;;;;3.60;0.60;;;14.30;99.90;;;;;;4900357;29;20209;-77
2024/03/15 16:23:33;;;;;;;1.77;0.60;;;14.30;99.90;;;;;;4900819;29;20206;-77
2024/03/15 16:26:00;;;;;;;1.67;0.53;;;14.10;99.90;;;;;;4900713;29;20320;-76
2024/03/15 16:28:27;;;;;;;2.00;0.40;;;14.10;99.90;;;;;;4900521;29;20252;-76
2024/03/15 16:30:54;;;;;;;1.97;0.47;;;14.10;99.90;;;;;;4899892;29;20276;-75
2024/03/15 16:33:21;;;;;;;1.87;0.60;;;14.10;99.90;;;;;;4900643;29;20298;-75
2024/03/15 16:35:48;;;;;;;3.80;0.80;;;14.00;99.90;;;;;;4900032;29;20272;-72
2024/03/15 16:38:15;;;;;;;4.43;0.70;;;14.10;99.90;;;;;;4899453;29;20280;-72
2024/03/15 16:40:42;;;;;;;3.17;0.80;;;14.00;99.90;;;;;;4899951;29;20681;-72
2024/03/15 16:43:09;;;;;;;2.43;0.63;;;13.90;99.90;;;;;;4900018;29;20216;-72
2024/03/15 16:45:36;;;;;;;2.93;0.60;;;13.80;99.90;;;;;;4900259;29;20287;-72
2024/03/15 16:48:04;;;;;;;1.40;0.47;;;13.70;99.90;;;;;;4900274;29;20264;-73
2024/03/15 16:50:32;;;;;;;5.10;0.70;;;13.70;99.90;;;;;;4897545;29;20233;-73
2024/03/15 16:52:59;;;;;;;4.97;0.80;;;13.70;99.90;;;;;;4914594;29;20221;-74
2024/03/15 16:55:27;;;;;;;2.43;0.70;;;13.70;99.90;;;;;;4906321;29;20316;-73
2024/03/15 16:57:55;;;;;;;3.63;0.90;;;13.70;99.90;;;;;;4934161;29;20237;-73
2024/03/15 17:00:22;;;;;;;3.60;0.70;;;13.80;99.90;;;;;;4917977;29;20212;-74
2024/03/15 17:02:49;;;;;;;0.57;0.40;;;13.80;99.90;;;;;;4899603;29;20256;-74
2024/03/15 17:05:17;;;;;;;2.53;0.80;;;13.80;99.90;;;;;;4899295;29;20607;-73
2024/03/15 17:07:45;;;;;;;2.60;1.03;;;13.80;99.90;;;;;;4908209;29;20205;-78
2024/03/15 17:10:13;;;;;;;1.53;0.50;;;13.80;99.90;;;;;;4919599;29;20209;-78
2024/03/15 17:12:42;;;;;;;3.00;0.63;;;13.80;99.90;;;;;;4899413;29;20604;-73
2024/03/15 17:15:10;;;;;;;0.97;0.50;;;13.70;99.90;;;;;;4898906;29;20666;-75
2024/03/15 17:17:37;;;;;;;4.10;0.83;;;13.70;99.90;;;;;;4898938;29;20320;-75
2024/03/15 17:20:05;;;;;;;3.40;0.60;;;13.70;99.90;;;;;;4904836;29;20662;-79
2024/03/15 17:22:32;;;;;;;3.97;0.57;;;13.50;99.90;;;;;;4925835;29;20209;-76
2024/03/15 17:24:59;;;;;;;7.13;0.93;;;13.50;99.90;;;;;;4898565;29;20300;-73
2024/03/15 17:27:27;;;;;;;4.70;0.60;;;13.40;99.90;;;;;;4894025;29;20272;-75
2024/03/15 17:29:55;;;;;;;4.17;0.80;;;13.40;99.90;;;;;;4894825;29;20213;-75
2024/03/15 17:32:22;;;;;;;3.10;0.50;;;13.30;99.90;;;;;;4912875;29;20216;-74
2024/03/15 17:34:49;;;;;;;2.10;0.70;;;13.30;99.90;;;;;;4897099;29;20623;-76
2024/03/15 17:37:16;;;;;;;1.67;0.60;;;13.30;99.90;;;;;;4897295;29;20770;-73
2024/03/15 17:39:44;;;;;;;2.70;0.57;;;13.30;99.90;;;;;;4897673;29;20212;-74
2024/03/15 17:42:12;;;;;;;3.63;0.67;;;13.30;99.90;;;;;;4899091;29;20201;-74
2024/03/15 17:44:40;;;;;;;1.10;0.60;;;13.10;99.90;;;;;;4912842;29;20220;-75
2024/03/15 17:47:08;;;;;;;4.13;0.73;;;13.10;99.90;;;;;;4925147;29;20233;-74
2024/03/15 17:49:35;;;;;;;1.30;0.77;;;13.10;99.90;;;;;;4901836;29;20241;-76
2024/03/15 17:52:04;;;;;;;3.43;0.70;;;13.10;99.90;;;;;;4901767;29;20272;-74
2024/03/15 17:54:31;;;;;;;3.53;0.83;;;13.00;99.90;;;;;;4890313;29;20870;-73
2024/03/15 17:56:58;;;;;;;1.93;0.80;;;12.90;99.90;;;;;;4906414;29;20313;-76
2024/03/15 17:59:26;;;;;;;4.03;1.00;;;12.90;99.90;;;;;;4901306;29;20538;-75
2024/03/15 18:01:53;;;;;;;3.93;0.80;;;12.90;99.90;;;;;;4901621;29;20261;-74
2024/03/15 18:04:20;;;;;;;3.97;0.87;;;12.80;99.90;;;;;;4901431;29;20231;-71
2024/03/15 18:06:47;;;;;;;3.73;0.70;;;12.80;99.90;;;;;;4901014;29;20225;-72
2024/03/15 18:09:14;;;;;;;6.07;1.23;;;12.80;99.90;;;;;;4901143;29;20333;-70
2024/03/15 18:11:42;;;;;;;5.80;0.80;;;12.90;99.90;;;;;;4901706;29;20631;-71
2024/03/15 18:14:09;;;;;;;1.80;0.70;;;12.90;99.90;;;;;;4901398;29;20267;-71
2024/03/15 18:16:36;;;;;;;4.53;0.97;;;12.90;99.90;;;;;;4900825;29;20344;-71
2024/03/15 18:19:03;;;;;;;6.67;1.27;;;12.80;99.90;;;;;;4901137;29;20237;-73
2024/03/15 18:21:30;;;;;;;10.03;1.40;;;12.90;99.90;;;;;;4901105;29;20253;-72
2024/03/15 18:23:57;;;;;;;7.80;2.03;;;12.90;99.90;;;;;;4890714;29;20292;-70
2024/03/15 18:26:24;;;;;;;6.50;1.33;;;12.90;99.90;;;;;;4911378;29;20232;-71
2024/03/15 18:28:51;;;;;;;7.83;1.30;;;12.90;99.90;;;;;;4915676;29;20741;-71
2024/03/15 18:31:18;;;;;;;3.47;1.07;;;12.80;99.90;;;;;;4907410;29;20701;-70
2024/03/15 18:33:45;;;;;;;7.00;1.30;;;12.80;99.90;;;;;;4904555;29;20202;-70
2024/03/15 18:36:14;;;;;;;4.27;1.13;;;12.80;99.90;;;;;;4900674;29;20360;-71
2024/03/15 18:38:41;;;;;;;4.90;1.73;;;12.70;99.90;;;;;;4901987;29;20241;-71
2024/03/15 18:41:08;;;;;;;6.70;0.90;;;12.70;99.90;;;;;;4901629;29;20240;-71
2024/03/15 18:43:35;;;;;;;6.73;0.80;;;12.70;99.90;;;;;;4927875;29;20205;-71
2024/03/15 18:46:02;;;;;;;7.47;0.70;;;12.70;99.90;;;;;;4901225;29;20229;-70
2024/03/15 18:48:29;;;;;;;2.40;0.80;;;12.60;99.90;;;;;;4901898;29;20304;-73
2024/03/15 18:50:57;;;;;;;6.03;1.17;;;12.60;99.90;;;;;;4901204;29;20281;-71
2024/03/15 18:53:24;;;;;;;7.10;1.10;;;12.70;99.90;;;;;;4898861;29;20208;-71
2024/03/15 18:55:51;;;;;;;3.43;1.10;;;12.70;99.90;;;;;;4901045;29;20253;-71
2024/03/15 18:58:18;;;;;;;8.27;1.97;;;12.60;99.90;;;;;;4900947;29;20321;-71
2024/03/15 19:00:46;;;;;;;5.50;1.43;;;12.60;99.90;;;;;;4900950;29;20249;-71
2024/03/15 19:03:13;;;;;;;2.87;0.93;;;12.60;99.90;;;;;;4900504;29;20248;-70
2024/03/15 19:05:40;;;;;;;6.27;1.10;;;12.70;99.90;;;;;;4900096;29;20722;-73
2024/03/15 19:08:07;;;;;;;4.87;1.30;;;12.70;99.90;;;;;;4901223;29;20749;-73
2024/03/15 19:10:34;;;;;;;8.50;1.07;;;12.80;99.90;;;;;;4901793;29;20268;-71
2024/03/15 19:13:06;;;;;;;8.83;1.10;;;12.80;99.90;;;;;;4897434;29;20218;-75
2024/03/15 19:15:33;;;;;;;8.57;2.10;;;12.80;99.90;;;;;;4900434;29;20241;-72
2024/03/15 19:18:00;;;;;;;4.67;1.00;;;12.80;99.90;;;;;;4902949;29;20283;-75
2024/03/15 19:20:28;;;;;;;4.03;0.77;;;12.80;99.90;;;;;;4922874;29;20300;-71
2024/03/15 19:22:55;;;;;;;6.43;0.90;;;12.70;99.90;;;;;;4899236;29;20701;-75
2024/03/15 19:25:22;;;;;;;7.37;1.20;;;12.70;99.90;;;;;;4898455;29;20762;-73
2024/03/15 19:27:51;;;;;;;7.73;1.33;;;12.60;99.90;;;;;;4892345;29;20210;-73
2024/03/15 19:30:18;;;;;;;3.50;1.07;;;12.60;99.90;;;;;;4899759;29;20244;-75
2024/03/15 19:32:45;;;;;;;10.37;3.33;;;12.50;99.90;;;;;;4899206;29;20687;-73
2024/03/15 19:35:12;;;;;;;6.70;1.67;;;12.60;99.90;;;;;;4899235;29;20245;-73
2024/03/15 19:37:41;;;;;;;4.20;0.90;;;12.50;99.90;;;;;;4899267;29;20210;-75
2024/03/15 19:40:09;;;;;;;5.90;1.00;;;12.50;99.90;;;;;;4899870;29;20213;-73
2024/03/15 19:42:36;;;;;;;8.87;1.23;;;12.40;99.90;;;;;;4898832;29;20233;-73
2024/03/15 19:45:03;;;;;;;8.67;1.07;;;12.50;99.90;;;;;;4899220;29;20280;-76
2024/03/15 19:47:30;;;;;;;4.10;1.07;;;12.50;99.90;;;;;;4899453;29;20228;-73
2024/03/15 19:49:57;;;;;;;9.30;1.13;;;12.60;99.90;;;;;;4898751;29;20698;-73
2024/03/15 19:52:24;;;;;;;6.10;1.07;;;12.70;99.90;;;;;;4898635;29;20671;-73
2024/03/15 19:54:51;;;;;;;4.03;1.10;;;12.70;99.90;;;;;;4899502;29;20244;-74
2024/03/15 19:57:19;;;;;;;11.63;1.30;;;12.70;99.90;;;;;;4899135;29;20267;-75
2024/03/15 19:59:46;;;;;;;3.60;1.27;;;12.70;99.90;;;;;;4899451;29;20285;-73
2024/03/15 20:02:12;;;;;;;8.67;1.47;;;12.80;99.90;;;;;;4894671;29;20296;-73
2024/03/15 20:04:40;;;;;;;3.97;0.90;;;12.80;99.90;;;;;;4899335;29;20269;-73
2024/03/15 20:07:07;;;;;;;9.60;1.00;;;12.60;99.90;;;;;;4900656;29;20718;-70
2024/03/15 20:09:35;;;;;;;8.73;1.00;;;12.50;99.90;;;;;;4900054;29;20721;-74
2024/03/15 20:12:02;;;;;;;4.67;1.07;;;12.50;99.90;;;;;;4899831;29;20210;-71
2024/03/15 20:14:29;;;;;;;4.57;0.73;;;12.50;99.90;;;;;;4898639;29;20213;-70
2024/03/15 20:16:56;;;;;;;8.00;1.30;;;12.50;99.90;;;;;;4899981;29;20664;-71
2024/03/15 20:19:23;;;;;;;6.13;0.80;;;12.50;99.90;;;;;;4900137;29;20671;-70
2024/03/15 20:21:50;;;;;;;6.83;1.00;;;12.50;99.90;;;;;;4900345;29;20217;-71
2024/03/15 20:24:17;;;;;;;4.60;1.00;;;12.50;99.90;;;;;;4900039;29;20626;-71
2024/03/15 20:26:45;;;;;;;2.90;0.67;;;12.50;99.90;;;;;;4899517;29;20225;-71
2024/03/15 20:29:12;;;;;;;4.40;0.90;;;12.50;99.90;;;;;;4900052;29;20210;-71
2024/03/15 20:31:39;;;;;;;6.73;1.00;;;12.50;99.90;;;;;;4899726;29;20210;-71
2024/03/15 20:34:08;;;;;;;3.87;0.80;;;12.50;99.90;;;;;;4899445;29;20244;-71
2024/03/15 20:36:35;;;;;;;4.23;0.90;;;12.50;99.90;;;;;;4888770;29;20241;-70
2024/03/15 20:39:03;;;;;;;7.47;0.80;;;12.50;99.90;;;;;;4913052;29;20261;-70
2024/03/15 20:41:30;;;;;;;2.90;0.70;;;12.40;99.90;;;;;;4900403;29;20269;-70
2024/03/15 20:43:58;;;;;;;8.40;0.90;;;12.40;99.90;;;;;;4899637;29;20634;-70
2024/03/15 20:46:25;;;;;;;4.03;0.60;;;12.30;99.90;;;;;;4899666;29;20232;-72
2024/03/15 20:48:52;;;;;;;7.10;0.60;;;12.30;99.90;;;;;;4899346;29;20213;-70
2024/03/15 20:51:20;;;;;;;2.17;0.67;;;12.20;99.90;;;;;;4899897;29;20431;-70
2024/03/15 20:53:51;;;;;;;2.70;0.47;;;12.10;99.90;;;;;;4899929;29;20213;-70
2024/03/15 20:56:18;;;;;;;4.43;1.00;;;12.00;99.90;;;;;;4900144;29;20240;-70
2024/03/15 20:58:47;;;;;;;1.10;0.40;;;12.00;99.90;;;;;;4899431;29;20594;-70
2024/03/15 21:01:14;;;;;;;1.57;0.53;;;12.00;99.90;;;;;;4899589;29;20671;-70
2024/03/15 21:03:41;;;;;;;0.70;0.30;;;11.90;99.90;;;;;;4899677;29;20731;-70
2024/03/15 21:06:08;;;;;;;4.40;0.93;;;11.90;99.90;;;;;;4899204;29;20240;-70
2024/03/15 21:08:35;;;;;;;2.83;0.37;;;11.80;99.90;;;;;;4887554;29;20646;-70
2024/03/15 21:11:02;;;;;;;3.87;0.73;;;11.80;99.90;;;;;;4886397;29;20210;-70
2024/03/15 21:13:29;;;;;;;3.47;0.53;;;11.80;99.90;;;;;;4899544;29;20300;-70
2024/03/15 21:15:57;;;;;;;4.47;1.00;;;11.70;99.90;;;;;;4899404;29;20276;-70
2024/03/15 21:18:26;;;;;;;2.40;0.40;;;11.70;99.90;;;;;;4898871;29;20233;-70
2024/03/15 21:20:54;;;;;;;2.27;0.43;;;11.70;99.90;;;;;;4899140;29;20214;-71
2024/03/15 21:23:21;;;;;;;2.60;0.47;;;11.70;99.90;;;;;;4899097;29;20228;-70
2024/03/15 21:25:49;;;;;;;5.33;0.60;;;11.70;99.90;;;;;;4898518;29;20237;-70
2024/03/15 21:28:16;;;;;;;2.07;0.60;;;11.80;99.90;;;;;;4898853;29;20218;-70
2024/03/15 21:30:43;;;;;;;7.30;0.80;;;11.80;99.90;;;;;;4898918;29;20304;-71
2024/03/15 21:33:10;;;;;;;5.13;0.60;;;11.70;99.90;;;;;;4898936;29;20245;-71
2024/03/15 21:35:37;;;;;;;2.40;0.60;;;11.70;99.90;;;;;;4898807;29;20754;-70